Surprise, AZ

5:09 AM MST on September 19, 2014 (GMT -0700)
Phoenix-Deer Valley Municipal | Change Station
CLOSE
Current Station
Airport
Location: Phoenix Deer Valley,
Elevation: 1476 ft
Nearby Weather Stations

Elev 1476 ft 33.69 °N, 112.07 °W | Updated 16 minutes ago

Partly Cloudy
Partly Cloudy
81 °F
Feels Like 83 °F
N
6
Wind Variable Wind from SE

Today
High -- | Low -- °F
--% Chance of Precip.
Yesterday
High -- | Low -- °F
Precip. -- in
6:15 AM 6:30 PM
Waning Crescent, 19% visible
Pressure 29.72 in
Visibility 10.0 miles
Clouds Clear
Heat Index 83 °F
Dew Point 67 °F
Humidity 62%
Rainfall 0.00 in
Snow Depth 3 in , 0 in , 0 in
UV 0 out of 12
Pollen 6.30 out of 12
PM2.5 Good
Flu Activity Not available.
METAR KDVT 191153Z 14005KT 10SM CLR 27/19 A2980 RMK AO2 SLP063 T02720194 10294 20272 53004

More Conditions Fewer Conditions

Pressure 29.72 in
Visibility 10.0 miles
Clouds Clear
Heat Index 83 °F
Dew Point 67 °F
Humidity 62%
Rainfall 0.00 in
Snow Depth 3 in , 0 in , 0 in
UV 0 out of 12
Pollen 6.30 out of 12
PM2.5 Good
Flu Activity Not available.
METAR KDVT 191153Z 14005KT 10SM CLR 27/19 A2980 RMK AO2 SLP063 T02720194 10294 20272 53004

More Conditions Fewer Conditions

10-Day Weather Forecast

Almanac

Astronomy

Sep. 19, 2014 Rise Set
Actual Time 6:15 AM MST 6:30 PM MST
Civil Twilight 5:50 AM MST 6:55 PM MST
Nautical Twilight 5:21 AM MST 7:24 PM MST
Astronomical Twilight 4:52 AM MST 7:53 PM MST
Moon 2:13 AM MST 3:52 PM MST
Length of Visible Light 13h 04m
Length of Day
12h 14m
Tomorrow will be 2m 4s shorter.
Waning Crescent, 19% of the Moon is Illuminated
Today
Waning Crescent
Sep 24
New
Oct 1
First Quarter
Oct 8
Full
Oct 15
Last Quarter

Today's Extremes

State Highs State Lows

Community

WunderPhotos

Upload Photos

1,754,597 photos uploaded!

Nearby

Air Quality

  Air Quality AQ Index Pollutant
Yesterday Good
OZONE
Yesterday Good
PM10
Current Good
PM2.5
Friday Good
OZONE
Friday Good
PM10
Friday Good
CO
Saturday Good
OZONE
Saturday Good
PM10
Saturday Good
CO

Snow Depth

Station Depth Elevation
Beaver Head 3 in 7990 ft
White Horse Lake 0 in 7180 ft
Snowslide Canyon 0 in 9730 ft
Promontory 0 in 7930 ft
Workman Creek 1 in 6900 ft

Earthquake Activity

City Distance Mag. Time & Date
No recent earthquake activity has been reported nearby.
Minimum magnitude displayed is 2.5.

Coastal Water Temperatures

Place Temperature
No Stations Reporting

Nearby Weather Stations